Time;durP1;ratioP1;P1;durP2;ratioP2;P2;SDS_P1;SDS_P2;PMS_P1;PMS_P2;Temp;Humidity;BMP_temperature;BMP_pressure;BME280_temperature;BME280_humidity;BME280_pressure;Samples;Min_cycle;Max_cycle;Signal;HPM_P1;HPM_P2
2024/01/14 00:00:15;;;;;;;;;;;13.10;65.40;;;;;;6277419;22;19903;-77
2024/01/14 00:02:41;;;;;;;;;;;13.00;64.90;;;;;;6277447;22;19907;-78
2024/01/14 00:05:07;;;;;;;;;;;13.10;65.30;;;;;;6276638;22;19945;-77
2024/01/14 00:07:35;;;;;;;;;;;13.10;64.80;;;;;;6277676;22;19934;-77
2024/01/14 00:10:03;;;;;;;;;;;13.10;65.10;;;;;;6277462;22;19964;-78
2024/01/14 00:12:29;;;;;;;;;;;13.10;65.20;;;;;;6276862;22;19911;-77
2024/01/14 00:14:55;;;;;;;;;;;13.10;65.00;;;;;;6277256;22;19982;-78
2024/01/14 00:17:21;;;;;;;;;;;13.00;65.40;;;;;;6277234;22;19935;-78
2024/01/14 00:19:47;;;;;;;;;;;13.00;65.30;;;;;;6276919;22;20267;-78
2024/01/14 00:22:16;;;;;;;;;;;13.00;65.30;;;;;;6276759;22;19903;-78
2024/01/14 00:24:42;;;;;;;;;;;13.00;65.20;;;;;;6277041;22;19907;-70
2024/01/14 00:27:08;;;;;;;;;;;12.70;64.40;;;;;;6276218;22;19946;-70
2024/01/14 00:29:36;;;;;;;;;;;13.00;65.20;;;;;;6276047;22;19907;-69
2024/01/14 00:32:02;;;;;;;;;;;11.70;64.40;;;;;;6275696;22;19911;-70
2024/01/14 00:34:28;;;;;;;;;;;13.00;65.20;;;;;;6276071;22;20293;-70
2024/01/14 00:36:53;;;;;;;;;;;13.00;65.20;;;;;;6275488;22;19976;-70
2024/01/14 00:39:20;;;;;;;;;;;12.90;66.10;;;;;;6275465;22;19903;-70
2024/01/14 00:41:46;;;;;;;;;;;12.80;65.40;;;;;;6275565;22;19903;-70
2024/01/14 00:44:12;;;;;;;;;;;13.00;65.30;;;;;;6275988;22;19907;-70
2024/01/14 00:46:38;;;;;;;;;;;12.90;65.20;;;;;;6275504;22;19950;-70
2024/01/14 00:49:03;;;;;;;;;;;12.90;65.50;;;;;;6275361;22;19982;-70
2024/01/14 00:51:29;;;;;;;;;;;12.90;65.40;;;;;;6275416;22;19919;-70
2024/01/14 00:53:54;;;;;;;;;;;12.90;65.50;;;;;;6275463;22;20237;-70
2024/01/14 00:56:19;;;;;;;;;;;12.80;65.60;;;;;;6275430;22;19928;-70
2024/01/14 00:58:45;;;;;;;;;;;12.80;65.30;;;;;;6275588;22;19949;-70
2024/01/14 01:01:10;;;;;;;;;;;12.80;65.00;;;;;;6275217;22;20342;-70
2024/01/14 01:03:36;;;;;;;;;;;12.80;65.60;;;;;;6275169;22;19954;-69
2024/01/14 01:06:02;;;;;;;;;;;12.90;65.20;;;;;;6285961;22;19907;-70
2024/01/14 01:08:28;;;;;;;;;;;12.50;65.10;;;;;;6285592;22;19910;-70
2024/01/14 01:10:53;;;;;;;;;;;12.80;65.40;;;;;;6285773;22;19903;-70
2024/01/14 01:13:19;;;;;;;;;;;12.90;65.40;;;;;;6285345;22;19911;-69
2024/01/14 01:15:44;;;;;;;;;;;12.90;65.30;;;;;;6285486;22;20334;-70
2024/01/14 01:18:10;;;;;;;;;;;12.80;65.20;;;;;;6285595;22;19903;-70
2024/01/14 01:20:35;;;;;;;;;;;12.80;65.30;;;;;;6275607;22;20211;-70
2024/01/14 01:23:01;;;;;;;;;;;12.80;65.80;;;;;;6275260;22;19904;-70
2024/01/14 01:25:26;;;;;;;;;;;12.70;65.00;;;;;;6275222;22;19903;-70
2024/01/14 01:27:52;;;;;;;;;;;12.80;65.50;;;;;;6275404;22;20250;-69
2024/01/14 01:30:17;;;;;;;;;;;12.70;65.50;;;;;;6275295;22;20262;-69
2024/01/14 01:32:43;;;;;;;;;;;12.70;65.50;;;;;;6248140;22;19912;-69
2024/01/14 01:35:08;;;;;;;;;;;12.80;65.30;;;;;;6275122;22;19903;-69
2024/01/14 01:37:34;;;;;;;;;;;12.70;65.30;;;;;;6275774;22;19942;-69
2024/01/14 01:39:59;;;;;;;;;;;12.70;65.20;;;;;;6275220;22;19903;-69
2024/01/14 01:42:25;;;;;;;;;;;12.70;65.20;;;;;;6275262;22;19910;-69
2024/01/14 01:44:50;;;;;;;;;;;12.70;65.60;;;;;;6275137;22;19939;-69
2024/01/14 01:47:16;;;;;;;;;;;12.70;65.40;;;;;;6275831;22;19998;-69
2024/01/14 01:49:42;;;;;;;;;;;12.80;65.40;;;;;;6275168;22;19907;-69
2024/01/14 01:52:09;;;;;;;;;;;12.70;65.70;;;;;;6275582;22;19993;-69
2024/01/14 01:54:35;;;;;;;;;;;12.70;65.40;;;;;;6275625;22;19911;-69
2024/01/14 01:57:01;;;;;;;;;;;12.70;66.20;;;;;;6275317;22;19947;-69
2024/01/14 01:59:27;;;;;;;;;;;12.70;65.70;;;;;;6275713;22;20284;-69
2024/01/14 02:01:54;;;;;;;;;;;12.70;65.20;;;;;;6275179;22;19904;-69
2024/01/14 02:04:20;;;;;;;;;;;12.70;65.60;;;;;;6275721;22;19916;-69
2024/01/14 02:06:46;;;;;;;;;;;12.70;66.00;;;;;;6275749;22;19982;-69
2024/01/14 02:09:12;;;;;;;;;;;12.70;65.60;;;;;;6276307;22;19907;-69
2024/01/14 02:11:38;;;;;;;;;;;12.70;65.50;;;;;;6277434;22;19934;-69
2024/01/14 02:14:04;;;;;;;;;;;12.70;65.80;;;;;;6277549;22;20239;-69
2024/01/14 02:16:30;;;;;;;;;;;12.70;65.60;;;;;;6277541;22;19903;-69
2024/01/14 02:18:56;;;;;;;;;;;12.70;65.70;;;;;;6277407;22;20277;-69
2024/01/14 02:21:22;;;;;;;;;;;12.80;65.80;;;;;;6276680;22;19907;-69
2024/01/14 02:24:03;;;;;;;;;;;12.50;65.50;;;;;;6276711;22;19904;-69
2024/01/14 02:26:28;;;;;;;;;;;12.70;65.60;;;;;;6287297;22;19981;-69
2024/01/14 02:28:54;;;;;;;;;;;12.60;65.60;;;;;;6287047;22;20277;-69
2024/01/14 02:31:20;;;;;;;;;;;12.60;65.40;;;;;;6277134;22;19946;-69
2024/01/14 02:33:45;;;;;;;;;;;12.70;66.00;;;;;;6277074;22;19962;-69
2024/01/14 02:36:11;;;;;;;;;;;12.60;65.70;;;;;;6277356;22;20237;-69
2024/01/14 02:38:36;;;;;;;;;;;12.60;65.70;;;;;;6276581;22;20256;-70
2024/01/14 02:41:02;;;;;;;;;;;12.90;66.00;;;;;;6276716;22;19914;-69
2024/01/14 02:43:27;;;;;;;;;;;12.60;65.80;;;;;;6276705;22;19973;-69
2024/01/14 02:45:53;;;;;;;;;;;12.60;66.30;;;;;;6276683;22;19903;-69
2024/01/14 02:48:18;;;;;;;;;;;12.50;65.60;;;;;;6277212;22;20216;-69
2024/01/14 02:50:44;;;;;;;;;;;12.70;65.50;;;;;;6276560;22;19907;-69
2024/01/14 02:53:09;;;;;;;;;;;12.80;65.70;;;;;;6276379;22;19943;-69
2024/01/14 02:55:35;;;;;;;;;;;12.50;65.40;;;;;;6276404;22;20029;-69
2024/01/14 02:58:00;;;;;;;;;;;12.60;65.70;;;;;;6276389;22;20230;-69
2024/01/14 03:00:26;;;;;;;;;;;12.50;65.00;;;;;;6277238;22;19926;-69
2024/01/14 03:02:51;;;;;;;;;;;12.50;65.10;;;;;;6276236;22;20285;-69
2024/01/14 03:05:17;;;;;;;;;;;12.60;65.40;;;;;;6276114;22;19969;-69
2024/01/14 03:07:42;;;;;;;;;;;12.50;65.00;;;;;;6276294;22;19934;-69
2024/01/14 03:10:08;;;;;;;;;;;12.50;65.50;;;;;;6276221;22;19903;-69
2024/01/14 03:12:34;;;;;;;;;;;12.60;64.60;;;;;;6276192;22;19911;-69
2024/01/14 03:14:59;;;;;;;;;;;12.50;65.70;;;;;;6276227;22;19965;-69
2024/01/14 03:17:24;;;;;;;;;;;12.50;65.60;;;;;;6276262;22;20274;-69
2024/01/14 03:19:50;;;;;;;;;;;12.50;65.50;;;;;;6276071;22;19904;-69
2024/01/14 03:22:15;;;;;;;;;;;12.50;65.50;;;;;;6275908;22;19903;-69
2024/01/14 03:24:41;;;;;;;;;;;12.50;65.50;;;;;;6276078;22;19939;-69
2024/01/14 03:27:06;;;;;;;;;;;12.50;65.40;;;;;;6276133;22;19957;-69
2024/01/14 03:29:32;;;;;;;;;;;12.50;65.10;;;;;;6276628;22;19907;-69
2024/01/14 03:31:57;;;;;;;;;;;12.40;65.10;;;;;;6276036;22;19915;-69
2024/01/14 03:34:23;;;;;;;;;;;12.50;65.40;;;;;;6276069;22;19907;-69
2024/01/14 03:36:48;;;;;;;;;;;12.40;65.30;;;;;;6276050;22;20239;-69
2024/01/14 03:39:14;;;;;;;;;;;12.40;65.30;;;;;;6275950;22;19903;-69
2024/01/14 03:41:39;;;;;;;;;;;12.70;65.40;;;;;;6276045;22;19910;-69
2024/01/14 03:44:06;;;;;;;;;;;12.40;65.40;;;;;;6275994;22;19904;-69
2024/01/14 03:46:31;;;;;;;;;;;12.40;65.50;;;;;;6276031;22;19910;-69
2024/01/14 03:48:57;;;;;;;;;;;12.30;65.30;;;;;;6275851;22;20295;-69
2024/01/14 03:51:22;;;;;;;;;;;12.40;65.40;;;;;;6275810;22;19977;-69
2024/01/14 03:53:48;;;;;;;;;;;12.40;65.30;;;;;;6275811;22;19903;-69
2024/01/14 03:56:13;;;;;;;;;;;12.20;65.20;;;;;;6275884;22;19903;-69
2024/01/14 03:58:39;;;;;;;;;;;12.40;65.20;;;;;;6276405;22;19978;-69
2024/01/14 04:01:04;;;;;;;;;;;12.30;65.10;;;;;;6275649;22;20323;-69
2024/01/14 04:03:30;;;;;;;;;;;12.30;65.10;;;;;;6275519;22;19968;-69
2024/01/14 04:05:55;;;;;;;;;;;12.30;65.30;;;;;;6275737;22;19903;-69
2024/01/14 04:08:21;;;;;;;;;;;12.40;65.70;;;;;;6275764;22;19903;-69
2024/01/14 04:10:46;;;;;;;;;;;12.30;65.60;;;;;;6275839;22;20235;-69
2024/01/14 04:13:12;;;;;;;;;;;12.20;65.60;;;;;;6275587;22;19915;-69
2024/01/14 04:15:38;;;;;;;;;;;12.30;65.60;;;;;;6275733;22;19907;-69
2024/01/14 04:18:03;;;;;;;;;;;12.20;65.50;;;;;;6275673;22;19982;-69
2024/01/14 04:20:29;;;;;;;;;;;12.40;65.20;;;;;;6275677;22;19907;-69
2024/01/14 04:22:54;;;;;;;;;;;12.30;65.40;;;;;;6275580;22;19913;-69
2024/01/14 04:25:20;;;;;;;;;;;12.20;65.10;;;;;;6276136;22;19953;-69
2024/01/14 04:27:45;;;;;;;;;;;12.30;65.30;;;;;;6275637;22;19903;-69
2024/01/14 04:30:11;;;;;;;;;;;12.20;65.20;;;;;;6275534;22;20190;-69
2024/01/14 04:32:37;;;;;;;;;;;12.30;65.00;;;;;;6275517;22;19911;-69
2024/01/14 04:35:02;;;;;;;;;;;12.20;65.60;;;;;;6275413;22;20242;-69
2024/01/14 04:37:28;;;;;;;;;;;12.20;64.80;;;;;;6275557;22;19969;-69
2024/01/14 04:39:55;;;;;;;;;;;12.20;65.50;;;;;;6275499;22;19903;-69
2024/01/14 04:42:21;;;;;;;;;;;12.20;65.00;;;;;;6275919;22;19907;-69
2024/01/14 04:44:46;;;;;;;;;;;12.20;65.70;;;;;;6276133;22;20295;-69
2024/01/14 04:47:12;;;;;;;;;;;12.10;65.20;;;;;;6275415;22;19938;-69
2024/01/14 04:49:37;;;;;;;;;;;12.20;65.30;;;;;;6276042;22;19910;-69
2024/01/14 04:52:03;;;;;;;;;;;12.20;65.30;;;;;;6275761;22;19944;-69
2024/01/14 04:54:28;;;;;;;;;;;12.10;64.90;;;;;;6275985;22;20350;-69
2024/01/14 04:56:54;;;;;;;;;;;12.20;65.40;;;;;;6275438;22;19931;-70
2024/01/14 04:59:19;;;;;;;;;;;12.10;65.40;;;;;;6275240;22;19983;-70
2024/01/14 05:01:45;;;;;;;;;;;12.10;65.00;;;;;;6275332;22;19966;-69
2024/01/14 05:04:12;;;;;;;;;;;12.10;65.30;;;;;;6248057;22;19915;-69
2024/01/14 05:06:37;;;;;;;;;;;12.20;65.20;;;;;;6275404;22;20188;-69
2024/01/14 05:09:03;;;;;;;;;;;11.80;65.10;;;;;;6275374;22;19903;-69
2024/01/14 05:11:29;;;;;;;;;;;12.10;65.20;;;;;;6275259;22;19911;-69
2024/01/14 05:13:54;;;;;;;;;;;12.10;65.30;;;;;;6275331;22;19903;-69
2024/01/14 05:16:20;;;;;;;;;;;12.10;65.20;;;;;;6275307;22;19903;-69
2024/01/14 05:18:46;;;;;;;;;;;12.10;65.30;;;;;;6275917;22;19903;-69
2024/01/14 05:21:16;;;;;;;;;;;12.10;65.00;;;;;;6275250;22;19910;-69
2024/01/14 05:23:41;;;;;;;;;;;12.10;60.30;;;;;;6276412;22;19907;-69
2024/01/14 05:26:07;;;;;;;;;;;12.10;65.20;;;;;;6275185;22;19904;-69
2024/01/14 05:28:32;;;;;;;;;;;14.00;66.40;;;;;;6248088;22;19965;-69
2024/01/14 05:31:00;;;;;;;;;;;12.10;62.00;;;;;;6274465;22;21423;-69
2024/01/14 05:33:25;;;;;;;;;;;12.00;65.10;;;;;;6275012;22;19912;-69
2024/01/14 05:35:51;;;;;;;;;;;12.00;65.10;;;;;;6275234;22;19903;-69
2024/01/14 05:38:17;;;;;;;;;;;12.00;65.20;;;;;;6275038;22;19997;-69
2024/01/14 05:40:42;;;;;;;;;;;12.20;65.20;;;;;;6275221;22;19914;-69
2024/01/14 05:43:08;;;;;;;;;;;12.10;65.20;;;;;;6275150;22;19956;-69
2024/01/14 05:45:33;;;;;;;;;;;11.90;65.10;;;;;;6276942;22;19903;-69
2024/01/14 05:47:59;;;;;;;;;;;12.00;65.10;;;;;;6277069;22;19931;-69
2024/01/14 05:50:24;;;;;;;;;;;12.00;65.30;;;;;;6277544;22;20286;-69
2024/01/14 05:52:49;;;;;;;;;;;12.00;65.30;;;;;;6276914;22;19912;-69
2024/01/14 05:55:15;;;;;;;;;;;12.00;65.00;;;;;;6276939;22;20238;-69
2024/01/14 05:57:40;;;;;;;;;;;11.90;64.80;;;;;;6277004;22;19988;-69
2024/01/14 06:00:06;;;;;;;;;;;12.00;65.20;;;;;;6276961;22;19910;-69
2024/01/14 06:02:32;;;;;;;;;;;12.00;64.80;;;;;;6277342;22;20299;-69
2024/01/14 06:04:57;;;;;;;;;;;12.50;65.40;;;;;;6276809;22;19922;-69
2024/01/14 06:07:23;;;;;;;;;;;12.20;65.50;;;;;;6276806;22;19907;-69
2024/01/14 06:09:48;;;;;;;;;;;12.00;65.30;;;;;;6276898;22;19911;-69
2024/01/14 06:12:17;;;;;;;;;;;11.20;64.80;;;;;;6276792;22;20342;-69
2024/01/14 06:14:42;;;;;;;;;;;12.00;60.50;;;;;;6276784;22;19989;-69
2024/01/14 06:17:08;;;;;;;;;;;12.00;65.30;;;;;;6277160;22;19934;-69
2024/01/14 06:19:34;;;;;;;;;;;11.80;65.10;;;;;;6277581;22;20293;-69
2024/01/14 06:22:00;;;;;;;;;;;12.10;65.30;;;;;;6277041;22;20315;-69
2024/01/14 06:24:26;;;;;;;;;;;12.00;65.20;;;;;;6276943;22;19910;-69
2024/01/14 06:26:52;;;;;;;;;;;12.00;65.40;;;;;;6277332;22;20290;-69
2024/01/14 06:29:18;;;;;;;;;;;12.00;64.90;;;;;;6276960;22;19903;-69
2024/01/14 06:31:45;;;;;;;;;;;11.90;65.10;;;;;;6277359;22;19918;-78
2024/01/14 06:34:11;;;;;;;;;;;12.00;64.90;;;;;;6277432;22;19903;-78
2024/01/14 06:36:37;;;;;;;;;;;12.00;65.40;;;;;;6277004;22;19903;-78
2024/01/14 06:39:05;;;;;;;;;;;11.90;65.10;;;;;;6277111;22;20242;-78
2024/01/14 06:41:31;;;;;;;;;;;12.40;65.50;;;;;;6276910;22;19903;-78
2024/01/14 06:43:57;;;;;;;;;;;11.90;65.10;;;;;;6277362;22;19996;-78
2024/01/14 06:46:23;;;;;;;;;;;11.90;65.10;;;;;;6277510;22;19907;-78
2024/01/14 06:48:49;;;;;;;;;;;12.00;65.20;;;;;;6277927;22;19904;-78
2024/01/14 06:51:15;;;;;;;;;;;11.90;65.20;;;;;;6277104;22;19930;-78
2024/01/14 06:53:41;;;;;;;;;;;12.00;65.20;;;;;;6277247;22;19930;-78
2024/01/14 06:56:08;;;;;;;;;;;11.90;65.00;;;;;;6276710;22;19903;-78
2024/01/14 06:58:34;;;;;;;;;;;11.90;65.50;;;;;;6276795;22;19931;-78
2024/01/14 07:01:01;;;;;;;;;;;12.00;65.30;;;;;;6277384;22;19911;-78
2024/01/14 07:03:27;;;;;;;;;;;11.90;64.90;;;;;;6276721;22;19915;-78
2024/01/14 07:05:53;;;;;;;;;;;11.90;65.30;;;;;;6277123;22;19925;-78
2024/01/14 07:08:19;;;;;;;;;;;11.90;65.30;;;;;;6276776;22;19986;-77
2024/01/14 07:10:45;;;;;;;;;;;11.90;65.30;;;;;;6276983;22;19986;-78
2024/01/14 07:13:11;;;;;;;;;;;12.00;65.50;;;;;;6276928;22;19995;-78
2024/01/14 07:15:37;;;;;;;;;;;12.00;65.40;;;;;;6277058;22;20239;-78
2024/01/14 07:18:04;;;;;;;;;;;11.90;65.20;;;;;;6277163;22;19903;-77
2024/01/14 07:20:30;;;;;;;;;;;11.90;64.20;;;;;;6276373;22;19907;-77
2024/01/14 07:22:55;;;;;;;;;;;11.80;65.40;;;;;;6276224;22;20388;-77
2024/01/14 07:25:21;;;;;;;;;;;11.90;64.80;;;;;;6276305;22;19903;-78
2024/01/14 07:27:46;;;;;;;;;;;12.00;65.20;;;;;;6276246;22;19982;-77
2024/01/14 07:30:12;;;;;;;;;;;11.80;65.10;;;;;;6276264;22;20028;-77
2024/01/14 07:32:37;;;;;;;;;;;11.80;64.30;;;;;;6275962;22;20219;-77
2024/01/14 07:35:03;;;;;;;;;;;11.80;65.10;;;;;;6276167;22;19903;-77
2024/01/14 07:37:33;;;;;;;;;;;11.90;64.50;;;;;;6276532;22;19973;-77
2024/01/14 07:39:59;;;;;;;;;;;11.80;65.20;;;;;;6276390;22;20208;-77
2024/01/14 07:42:25;;;;;;;;;;;11.90;65.60;;;;;;6276280;22;19904;-77
2024/01/14 07:44:51;;;;;;;;;;;11.80;65.30;;;;;;6277205;22;20303;-76
2024/01/14 07:47:17;;;;;;;;;;;11.80;65.40;;;;;;6276242;22;19903;-79
2024/01/14 07:49:48;;;;;;;;;;;11.80;65.40;;;;;;6276000;22;19907;-81
2024/01/14 07:52:17;;;;;;;;;;;11.80;65.20;;;;;;6286243;22;20235;-79
2024/01/14 07:54:43;;;;;;;;;;;11.80;60.40;;;;;;6275935;22;19907;-77
2024/01/14 07:57:09;;;;;;;;;;;11.80;65.50;;;;;;6276273;22;19975;-75
2024/01/14 07:59:34;;;;;;;;;;;11.80;65.50;;;;;;6276521;22;19965;-75
2024/01/14 08:02:00;;;;;;;;;;;11.80;64.70;;;;;;6275747;22;20315;-76
2024/01/14 08:04:26;;;;;;;;;;;11.80;65.50;;;;;;6276161;22;19922;-75
2024/01/14 08:06:51;;;;;;;;;;;11.80;65.20;;;;;;6276103;22;19942;-77
2024/01/14 08:09:17;;;;;;;;;;;11.70;66.00;;;;;;6276629;22;19934;-76
2024/01/14 08:11:43;;;;;;;;;;;11.80;65.30;;;;;;6276150;22;20326;-76
2024/01/14 08:14:09;;;;;;;;;;;11.70;65.10;;;;;;6277070;22;19910;-77
2024/01/14 08:16:35;;;;;;;;;;;11.70;65.20;;;;;;6276540;22;19903;-75
2024/01/14 08:19:01;;;;;;;;;;;11.60;65.30;;;;;;6276533;22;20238;-74
2024/01/14 08:21:26;;;;;;;;;;;11.80;65.50;;;;;;6276017;22;19903;-75
2024/01/14 08:23:52;;;;;;;;;;;11.70;64.80;;;;;;6276060;22;19907;-76
2024/01/14 08:26:18;;;;;;;;;;;10.10;64.40;;;;;;6276490;22;19978;-75
2024/01/14 08:28:44;;;;;;;;;;;11.70;65.40;;;;;;6276864;22;19919;-75
2024/01/14 08:31:10;;;;;;;;;;;11.80;65.50;;;;;;6276158;22;19938;-77
2024/01/14 08:33:37;;;;;;;;;;;11.70;65.30;;;;;;6275952;22;19918;-77
2024/01/14 08:36:03;;;;;;;;;;;11.60;65.60;;;;;;6275932;22;19978;-78
2024/01/14 08:38:29;;;;;;;;;;;11.60;64.40;;;;;;6276376;22;19930;-77
2024/01/14 08:40:55;;;;;;;;;;;11.70;65.40;;;;;;6276286;22;19903;-76
2024/01/14 08:43:21;;;;;;;;;;;11.80;65.40;;;;;;6276812;22;19919;-77
2024/01/14 08:45:47;;;;;;;;;;;11.70;65.40;;;;;;6276354;22;19964;-76
2024/01/14 08:48:13;;;;;;;;;;;11.80;65.40;;;;;;6275714;22;19953;-76
2024/01/14 08:50:39;;;;;;;;;;;11.60;65.20;;;;;;6275793;22;19904;-77
2024/01/14 08:53:05;;;;;;;;;;;11.60;65.40;;;;;;6276120;22;19918;-77
2024/01/14 08:55:31;;;;;;;;;;;11.60;64.90;;;;;;6276188;22;19936;-70
2024/01/14 08:57:57;;;;;;;;;;;11.60;65.40;;;;;;6276261;22;19903;-70
2024/01/14 09:00:23;;;;;;;;;;;11.60;65.50;;;;;;6275940;22;20302;-70
2024/01/14 09:02:49;;;;;;;;;;;11.60;65.00;;;;;;6276308;22;19978;-69
2024/01/14 09:05:16;;;;;;;;;;;11.70;65.30;;;;;;6275712;22;19916;-70
2024/01/14 09:07:42;;;;;;;;;;;11.60;65.40;;;;;;6276294;22;19926;-70
2024/01/14 09:10:08;;;;;;;;;;;11.60;65.50;;;;;;6276379;22;20327;-76
2024/01/14 09:12:34;;;;;;;;;;;11.50;64.70;;;;;;6275839;22;19918;-75
2024/01/14 09:15:00;;;;;;;;;;;11.60;65.50;;;;;;6276017;22;19903;-77
2024/01/14 09:17:26;;;;;;;;;;;11.90;65.80;;;;;;6275981;22;19904;-78
2024/01/14 09:19:52;;;;;;;;;;;12.70;66.10;;;;;;6277575;22;19904;-78
2024/01/14 09:22:18;;;;;;;;;;;11.50;65.40;;;;;;6278582;22;19903;-79
2024/01/14 09:24:45;;;;;;;;;;;11.50;65.60;;;;;;6278245;22;19903;-79
2024/01/14 09:27:12;;;;;;;;;;;11.50;65.50;;;;;;6278137;22;19910;-78
2024/01/14 09:29:39;;;;;;;;;;;11.50;65.40;;;;;;6278127;22;20277;-78
2024/01/14 09:32:05;;;;;;;;;;;11.50;65.20;;;;;;6277846;22;20323;-78
2024/01/14 09:34:31;;;;;;;;;;;11.50;65.00;;;;;;6278164;22;19904;-78
2024/01/14 09:36:56;;;;;;;;;;;11.50;65.20;;;;;;6278153;22;19910;-80
2024/01/14 09:39:22;;;;;;;;;;;11.50;65.40;;;;;;6277703;22;20388;-79
2024/01/14 09:41:57;;;;;;;;;;;11.50;65.30;;;;;;6278017;22;19981;-77
2024/01/14 09:44:23;;;;;;;;;;;12.70;61.10;;;;;;6278055;22;19907;-78
2024/01/14 09:46:49;;;;;;;;;;;11.70;65.70;;;;;;6277725;22;19903;-78
2024/01/14 09:49:16;;;;;;;;;;;11.50;65.10;;;;;;6277534;22;19903;-78
2024/01/14 09:51:42;;;;;;;;;;;11.50;65.50;;;;;;6277950;22;19911;-78
2024/01/14 09:54:08;;;;;;;;;;;11.60;65.50;;;;;;6277609;22;20337;-79
2024/01/14 09:56:35;;;;;;;;;;;11.80;65.50;;;;;;6277942;22;20356;-79
2024/01/14 09:59:01;;;;;;;;;;;11.60;65.30;;;;;;6278400;22;19903;-77
2024/01/14 10:01:31;;;;;;;;;;;11.60;65.30;;;;;;6279647;22;19930;-77
2024/01/14 10:04:01;;;;;;;;;;;11.50;65.70;;;;;;6279135;22;19941;-78
2024/01/14 10:06:27;;;;;;;;;;;11.50;65.70;;;;;;6277754;22;20277;-76
2024/01/14 10:08:53;;;;;;;;;;;11.60;66.00;;;;;;6277845;22;19916;-75
2024/01/14 10:11:19;;;;;;;;;;;11.60;65.90;;;;;;6277816;22;20229;-77
2024/01/14 10:13:45;;;;;;;;;;;11.60;66.00;;;;;;6277860;22;19903;-79
2024/01/14 10:16:14;;;;;;;;;;;11.60;66.30;;;;;;6277428;22;19904;-79
2024/01/14 10:18:40;;;;;;;;;;;11.50;66.20;;;;;;6277169;22;20318;-79
2024/01/14 10:21:06;;;;;;;;;;;11.50;66.30;;;;;;6277084;22;19904;-79
2024/01/14 10:23:32;;;;;;;;;;;11.60;66.60;;;;;;6277028;22;19904;-80
2024/01/14 10:26:02;;;;;;;;;;;11.60;66.50;;;;;;6277720;22;19911;-80
2024/01/14 10:28:34;;;;;;;;;;;11.60;66.70;;;;;;6276852;22;19903;-80
2024/01/14 10:31:04;;;;;;;;;;;11.70;61.80;;;;;;6277352;22;19912;-79
2024/01/14 10:33:30;;;;;;;;;;;11.60;61.80;;;;;;6276760;22;19911;-77
2024/01/14 10:35:56;;;;;;;;;;;11.60;66.70;;;;;;6277010;22;20331;-78
2024/01/14 10:38:22;;;;;;;;;;;11.60;66.70;;;;;;6276898;22;19903;-77
2024/01/14 10:40:48;;;;;;;;;;;11.60;66.60;;;;;;6277071;22;19904;-77
2024/01/14 10:43:14;;;;;;;;;;;11.60;67.00;;;;;;6277475;22;19982;-79
2024/01/14 10:45:39;;;;;;;;;;;11.70;66.40;;;;;;6276709;22;19910;-78
2024/01/14 10:48:10;;;;;;;;;;;11.70;66.40;;;;;;6276704;22;19904;-77
2024/01/14 10:50:36;;;;;;;;;;;11.70;66.10;;;;;;6287023;22;19903;-77
2024/01/14 10:53:03;;;;;;;;;;;11.70;66.70;;;;;;6276503;22;19911;-77
2024/01/14 10:55:29;;;;;;;;;;;11.70;66.70;;;;;;6276710;22;19903;-78
2024/01/14 10:57:55;;;;;;;;;;;11.70;66.60;;;;;;6277268;22;19907;-78
2024/01/14 11:00:21;;;;;;;;;;;11.70;66.70;;;;;;6276937;22;20346;-77
2024/01/14 11:02:47;;;;;;;;;;;11.70;66.10;;;;;;6276740;22;19903;-77
2024/01/14 11:05:13;;;;;;;;;;;11.80;66.70;;;;;;6276924;22;19915;-78
2024/01/14 11:07:40;;;;;;;;;;;11.70;66.60;;;;;;6276778;22;20306;-77
2024/01/14 11:10:10;;;;;;;;;;;11.80;66.80;;;;;;6276800;22;20363;-78
2024/01/14 11:12:39;;;;;;;;;;;11.70;66.00;;;;;;6276206;22;20319;-77
2024/01/14 11:15:12;;;;;;;;;;;11.70;61.50;;;;;;6277187;22;19910;-79
2024/01/14 11:17:45;;;;;;;;;;;11.80;66.30;;;;;;6277071;22;19930;-78
2024/01/14 11:20:15;;;;;;;;;;;11.70;66.80;;;;;;6286993;22;19903;-80
2024/01/14 11:22:42;;;;;;;;;;;11.80;61.60;;;;;;6276653;22;19907;-79
2024/01/14 11:25:17;;;;;;;;;;;11.80;66.80;;;;;;6276863;22;19903;-80
2024/01/14 11:27:43;;;;;;;;;;;11.80;61.80;;;;;;6276499;22;19904;-81
2024/01/14 11:30:16;;;;;;;;;;;11.90;67.00;;;;;;6276488;22;19904;-78
2024/01/14 11:32:42;;;;;;;;;;;11.80;64.80;;;;;;6286809;22;19938;-79
2024/01/14 11:35:09;;;;;;;;;;;11.80;66.40;;;;;;6276202;22;20275;-83
2024/01/14 11:37:36;;;;;;;;;;;11.80;66.50;;;;;;6276629;22;19981;-76
2024/01/14 11:40:08;;;;;;;;;;;11.80;66.70;;;;;;6276902;22;19907;-76
2024/01/14 11:42:49;;;;;;;;;;;11.90;61.80;;;;;;6275988;22;19978;-78
2024/01/14 11:45:24;;;;;;;;;;;11.90;61.70;;;;;;6286846;22;20191;-80
2024/01/14 11:47:56;;;;;;;;;;;11.80;66.20;;;;;;6276327;22;19950;-83
2024/01/14 11:50:25;;;;;;;;;;;11.80;61.70;;;;;;6276471;22;19903;-77
2024/01/14 11:52:53;;;;;;;;;;;11.90;61.60;;;;;;6276109;22;19918;-76
2024/01/14 11:55:26;;;;;;;;;;;11.90;66.50;;;;;;6276611;22;19994;-76
2024/01/14 11:57:53;;;;;;;;;;;11.90;61.50;;;;;;6276643;22;19910;-77
2024/01/14 12:00:23;;;;;;;;;;;11.90;66.40;;;;;;6276175;22;19938;-77
2024/01/14 12:03:05;;;;;;;;;;;11.90;66.00;;;;;;6275985;22;19919;-76
2024/01/14 12:05:30;;;;;;;;;;;11.80;61.40;;;;;;6286244;22;19915;-77
2024/01/14 12:07:58;;;;;;;;;;;11.80;66.10;;;;;;6286121;22;19910;-77
2024/01/14 12:10:24;;;;;;;;;;;11.90;66.40;;;;;;6276362;22;19903;-77
2024/01/14 12:12:50;;;;;;;;;;;11.90;66.20;;;;;;6276364;22;20234;-74
2024/01/14 12:15:16;;;;;;;;;;;11.90;66.20;;;;;;6276111;22;19987;-76
2024/01/14 12:17:55;;;;;;;;;;;11.80;66.20;;;;;;6276218;22;19904;-78
2024/01/14 12:20:24;;;;;;;;;;;11.90;61.40;;;;;;6275715;22;19903;-75
2024/01/14 12:23:04;;;;;;;;;;;11.90;66.40;;;;;;6275833;22;19903;-79
2024/01/14 12:25:30;;;;;;;;;;;11.90;61.60;;;;;;6287745;22;19911;-69
2024/01/14 12:27:56;;;;;;;;;;;12.00;66.70;;;;;;6278752;22;19903;-75
2024/01/14 12:30:34;;;;;;;;;;;12.00;66.40;;;;;;6276468;22;20255;-73
2024/01/14 12:33:14;;;;;;;;;;;12.00;61.70;;;;;;6272592;22;19990;-74
2024/01/14 12:35:41;;;;;;;;;;;11.90;66.40;;;;;;6276112;22;20461;-73
2024/01/14 12:38:08;;;;;;;;;;;12.00;66.70;;;;;;6275781;22;19970;-74
2024/01/14 12:40:34;;;;;;;;;;;12.00;66.90;;;;;;6275655;22;19903;-75
2024/01/14 12:43:00;;;;;;;;;;;12.10;66.60;;;;;;6275617;22;19904;-75
2024/01/14 12:45:25;;;;;;;;;;;12.00;66.70;;;;;;6275914;22;19931;-74
2024/01/14 12:47:55;;;;;;;;;;;12.20;66.80;;;;;;6276355;22;19909;-75
2024/01/14 12:50:20;;;;;;;;;;;12.00;66.50;;;;;;6276275;22;19910;-77
2024/01/14 12:52:46;;;;;;;;;;;12.00;66.80;;;;;;6275666;22;20238;-74
2024/01/14 12:55:21;;;;;;;;;;;12.10;66.60;;;;;;6275593;22;19921;-74
2024/01/14 12:57:47;;;;;;;;;;;12.00;66.50;;;;;;6285863;22;20397;-72
2024/01/14 13:00:14;;;;;;;;;;;12.00;66.80;;;;;;6275934;22;19907;-74
2024/01/14 13:02:40;;;;;;;;;;;12.10;66.70;;;;;;6275658;22;19910;-72
2024/01/14 13:05:06;;;;;;;;;;;12.10;67.00;;;;;;6275718;22;19915;-72
2024/01/14 13:07:31;;;;;;;;;;;12.10;66.70;;;;;;6276304;22;19910;-75
2024/01/14 13:09:57;;;;;;;;;;;12.10;66.90;;;;;;6276319;22;19919;-75
2024/01/14 13:12:23;;;;;;;;;;;12.10;66.70;;;;;;6275592;22;19990;-75
2024/01/14 13:14:49;;;;;;;;;;;12.10;66.20;;;;;;6276309;22;19986;-78
2024/01/14 13:17:15;;;;;;;;;;;12.10;66.80;;;;;;6276224;22;19966;-76
2024/01/14 13:19:41;;;;;;;;;;;12.10;66.80;;;;;;6275831;22;19934;-76
2024/01/14 13:22:07;;;;;;;;;;;12.10;66.10;;;;;;6276185;22;19985;-76
2024/01/14 13:24:33;;;;;;;;;;;12.10;66.50;;;;;;6276282;22;19988;-76
2024/01/14 13:26:59;;;;;;;;;;;12.20;66.40;;;;;;6276155;22;19946;-77
2024/01/14 13:29:25;;;;;;;;;;;12.10;66.60;;;;;;6276146;22;19910;-77
2024/01/14 13:31:51;;;;;;;;;;;12.20;66.60;;;;;;6276292;22;19908;-77
2024/01/14 13:34:17;;;;;;;;;;;12.20;66.60;;;;;;6276284;22;19904;-79
2024/01/14 13:36:43;;;;;;;;;;;12.20;66.70;;;;;;6276149;22;19934;-78
2024/01/14 13:39:08;;;;;;;;;;;12.20;66.60;;;;;;6276141;22;19926;-77
2024/01/14 13:41:34;;;;;;;;;;;12.20;66.70;;;;;;6276256;22;19903;-79
2024/01/14 13:44:00;;;;;;;;;;;12.20;66.60;;;;;;6276222;22;20262;-79
2024/01/14 13:46:26;;;;;;;;;;;12.20;66.60;;;;;;6275616;22;19931;-77
2024/01/14 13:48:52;;;;;;;;;;;12.20;67.00;;;;;;6275675;22;19939;-78
2024/01/14 13:51:19;;;;;;;;;;;12.20;66.90;;;;;;6275994;22;19910;-72
2024/01/14 13:53:45;;;;;;;;;;;11.90;66.60;;;;;;6275866;22;19912;-76
2024/01/14 13:56:11;;;;;;;;;;;12.30;66.20;;;;;;6275969;22;20378;-77
2024/01/14 13:58:37;;;;;;;;;;;12.20;66.60;;;;;;6275754;22;19935;-79
2024/01/14 14:01:06;;;;;;;;;;;12.20;66.70;;;;;;6276285;22;19970;-78
2024/01/14 14:03:32;;;;;;;;;;;12.20;66.70;;;;;;6275343;22;19919;-79
2024/01/14 14:05:58;;;;;;;;;;;12.50;67.00;;;;;;6287385;22;19970;-76
2024/01/14 14:08:24;;;;;;;;;;;12.20;66.80;;;;;;6277594;22;19907;-79
2024/01/14 14:10:50;;;;;;;;;;;12.30;67.00;;;;;;6277589;22;19925;-80